createdAt,value
2023-04-20T00:01:44.408Z,9.40
2023-04-20T00:04:32.229Z,6.78
2023-04-20T00:11:13.657Z,4.97
2023-04-20T00:14:01.808Z,8.25
2023-04-20T00:16:49.702Z,7.72
2023-04-20T00:19:39.622Z,10.85
2023-04-20T00:22:36.159Z,14.75
2023-04-20T00:25:23.854Z,7.50
2023-04-20T00:28:11.542Z,11.88
2023-04-20T00:31:01.465Z,8.68
2023-04-20T00:33:49.523Z,9.05
2023-04-20T00:36:37.192Z,6.72
2023-04-20T00:39:24.885Z,7.45
2023-04-20T00:42:12.558Z,7.25
2023-04-20T00:45:00.204Z,9.18
2023-04-20T00:47:49.174Z,6.93
2023-04-20T00:50:38.622Z,7.03
2023-04-20T00:53:27.803Z,9.50
2023-04-20T00:56:16.973Z,11.43
2023-04-20T00:59:04.912Z,11.05
2023-04-20T01:01:52.676Z,8.60
2023-04-20T01:04:40.800Z,6.68
2023-04-20T01:07:30.322Z,9.02
2023-04-20T01:10:17.977Z,11.65
2023-04-20T01:13:05.699Z,8.57
2023-04-20T01:15:54.535Z,17.67
2023-04-20T01:18:44.728Z,24.55
2023-04-20T01:21:32.695Z,7.72
2023-04-20T01:24:20.509Z,13.70
2023-04-20T01:27:08.160Z,13.75
2023-04-20T01:29:55.934Z,10.35
2023-04-20T01:32:44.648Z,11.32
2023-04-20T01:35:32.383Z,10.93
2023-04-20T01:38:23.589Z,8.77
2023-04-20T01:41:11.558Z,14.77
2023-04-20T01:43:59.190Z,10.85
2023-04-20T01:46:46.859Z,9.52
2023-04-20T01:49:36.793Z,9.70
2023-04-20T01:52:24.412Z,13.32
2023-04-20T01:55:12.106Z,13.32
2023-04-20T01:57:59.741Z,8.65
2023-04-20T02:00:47.645Z,7.30
2023-04-20T02:03:35.565Z,9.15
2023-04-20T02:06:23.394Z,10.70
2023-04-20T02:09:11.196Z,9.52
2023-04-20T02:11:58.842Z,8.38
2023-04-20T02:14:46.546Z,10.52
2023-04-20T02:17:37.035Z,11.13
2023-04-20T02:20:24.935Z,7.22
2023-04-20T02:23:13.106Z,8.00
2023-04-20T02:26:01.047Z,14.05
2023-04-20T02:28:48.762Z,9.45
2023-04-20T02:31:36.582Z,9.10
2023-04-20T02:34:25.056Z,8.75
2023-04-20T02:37:12.760Z,12.60
2023-04-20T02:40:02.881Z,9.35
2023-04-20T02:42:50.652Z,6.85
2023-04-20T02:45:38.548Z,10.43
2023-04-20T02:48:26.925Z,8.90
2023-04-20T02:51:15.398Z,9.90
2023-04-20T02:54:06.207Z,9.60
2023-04-20T02:56:54.001Z,5.75
2023-04-20T02:59:42.358Z,11.07
2023-04-20T03:02:37.898Z,9.35
2023-04-20T03:05:25.658Z,9.45
2023-04-20T03:08:13.669Z,12.63
2023-04-20T03:11:02.528Z,11.70
2023-04-20T03:13:50.285Z,10.68
2023-04-20T03:16:39.036Z,9.30
2023-04-20T03:19:28.020Z,11.30
2023-04-20T03:22:21.446Z,9.50
2023-04-20T03:25:13.654Z,14.43
2023-04-20T03:28:20.705Z,15.20
2023-04-20T03:31:08.647Z,13.32
2023-04-20T03:33:56.353Z,10.13
2023-04-20T03:36:44.160Z,13.23
2023-04-20T03:39:31.941Z,19.38
2023-04-20T03:42:19.768Z,15.80
2023-04-20T03:45:09.647Z,10.98
2023-04-20T03:47:57.437Z,11.20
2023-04-20T03:50:46.297Z,13.93
2023-04-20T03:53:34.249Z,17.88
2023-04-20T03:56:22.794Z,13.65
2023-04-20T03:59:12.483Z,12.88
2023-04-20T04:02:02.910Z,10.70
2023-04-20T04:04:50.860Z,11.18
2023-04-20T04:07:38.625Z,11.57
2023-04-20T04:10:27.073Z,10.15
2023-04-20T04:13:14.918Z,10.43
2023-04-20T04:16:02.912Z,9.77
2023-04-20T04:18:50.929Z,10.70
2023-04-20T04:21:39.938Z,10.02
2023-04-20T04:24:28.283Z,11.23
2023-04-20T04:27:30.027Z,8.25
2023-04-20T04:30:18.165Z,10.60
2023-04-20T04:33:06.062Z,10.95
2023-04-20T04:35:57.772Z,17.88
2023-04-20T04:38:46.360Z,13.10
2023-04-20T04:41:34.253Z,14.73
2023-04-20T04:44:40.546Z,11.27
2023-04-20T04:47:35.444Z,8.52
2023-04-20T04:50:23.706Z,7.53
2023-04-20T04:53:12.597Z,6.80
2023-04-20T04:56:00.329Z,14.50
2023-04-20T04:58:48.006Z,12.93
2023-04-20T05:01:35.874Z,11.13
2023-04-20T05:04:23.689Z,11.10
2023-04-20T05:07:11.429Z,11.40
2023-04-20T05:09:59.094Z,12.27
2023-04-20T05:12:47.122Z,7.03
2023-04-20T05:15:34.875Z,6.72
2023-04-20T05:18:22.551Z,9.00
2023-04-20T05:21:10.326Z,7.40
2023-04-20T05:23:58.084Z,6.75
2023-04-20T05:26:48.744Z,6.32
2023-04-20T05:29:36.428Z,6.65
2023-04-20T05:32:24.130Z,7.57
2023-04-20T05:35:11.874Z,5.55
2023-04-20T05:38:02.702Z,6.97
2023-04-20T05:40:51.217Z,11.85
2023-04-20T05:43:38.829Z,7.88
2023-04-20T05:46:26.625Z,8.82
2023-04-20T05:49:14.534Z,7.30
2023-04-20T05:52:02.410Z,6.55
2023-04-20T05:54:50.104Z,8.93
2023-04-20T05:57:43.083Z,6.97
2023-04-20T06:00:30.687Z,5.50
2023-04-20T06:03:18.789Z,7.43
2023-04-20T06:06:07.150Z,9.02
2023-04-20T06:08:55.332Z,6.90
2023-04-20T06:11:42.955Z,6.88
2023-04-20T06:14:30.658Z,4.97
2023-04-20T06:17:18.395Z,5.07
2023-04-20T06:20:07.998Z,10.52
2023-04-20T06:22:55.785Z,11.68
2023-04-20T06:25:44.274Z,9.45
2023-04-20T06:28:31.960Z,9.73
2023-04-20T06:31:20.400Z,8.52
2023-04-20T06:34:40.241Z,6.45
2023-04-20T06:37:30.094Z,9.40
2023-04-20T06:40:17.870Z,4.82
2023-04-20T06:43:05.530Z,6.15
2023-04-20T06:45:53.317Z,7.05
2023-04-20T06:48:40.974Z,7.68
2023-04-20T06:51:29.457Z,6.35
2023-04-20T06:54:17.068Z,8.20
2023-04-20T06:57:05.848Z,8.10
2023-04-20T06:59:53.516Z,6.85
2023-04-20T07:02:49.497Z,4.28
2023-04-20T07:05:37.369Z,9.50
2023-04-20T07:08:25.141Z,6.43
2023-04-20T07:11:12.773Z,5.68
2023-04-20T07:14:11.227Z,9.25
2023-04-20T07:16:58.833Z,5.07
2023-04-20T07:19:49.306Z,8.10
2023-04-20T07:22:38.366Z,13.05
2023-04-20T07:25:26.246Z,6.70
2023-04-20T07:28:14.150Z,5.15
2023-04-20T07:31:01.751Z,4.93
2023-04-20T07:33:49.377Z,8.05
2023-04-20T07:36:39.313Z,8.40
2023-04-20T07:39:30.619Z,7.13
2023-04-20T07:42:21.846Z,5.25
2023-04-20T07:45:11.455Z,4.45
2023-04-20T07:48:01.761Z,9.20
2023-04-20T07:50:50.765Z,2.90
2023-04-20T07:53:38.455Z,6.55
2023-04-20T07:56:26.294Z,5.00
2023-04-20T07:59:13.997Z,8.05
2023-04-20T08:02:02.693Z,5.35
2023-04-20T08:04:50.790Z,4.20
2023-04-20T08:07:44.088Z,3.92
2023-04-20T08:10:31.842Z,3.22
2023-04-20T08:13:19.528Z,3.60
2023-04-20T08:16:09.805Z,4.50
2023-04-20T08:18:57.442Z,4.88
2023-04-20T08:21:45.285Z,4.68
2023-04-20T08:24:35.614Z,5.43
2023-04-20T08:27:23.578Z,8.70
2023-04-20T08:30:17.070Z,7.32
2023-04-20T08:33:06.989Z,4.40
2023-04-20T08:35:54.775Z,8.48
2023-04-20T08:38:42.377Z,2.83
2023-04-20T08:41:33.683Z,3.83
2023-04-20T08:44:21.952Z,2.95
2023-04-20T08:47:11.933Z,5.10
2023-04-20T08:50:01.144Z,5.05
2023-04-20T08:52:48.797Z,7.20
2023-04-20T08:55:36.648Z,2.72
2023-04-20T08:58:34.673Z,2.10
2023-04-20T09:01:34.663Z,2.80
2023-04-20T09:04:27.150Z,2.20
2023-04-20T09:07:20.430Z,5.35
2023-04-20T09:10:15.476Z,2.25
2023-04-20T09:13:06.322Z,3.95
2023-04-20T09:15:53.979Z,5.63
2023-04-20T09:18:55.157Z,2.85
2023-04-20T09:21:51.098Z,2.93
2023-04-20T09:24:39.966Z,3.47
2023-04-20T09:27:29.001Z,3.90
2023-04-20T09:30:16.659Z,2.50
2023-04-20T09:33:08.706Z,4.20
2023-04-20T09:36:04.524Z,3.88
2023-04-20T09:39:06.607Z,2.55
2023-04-20T09:41:55.305Z,2.53
2023-04-20T09:44:46.317Z,2.33
2023-04-20T09:47:37.348Z,3.93
2023-04-20T09:50:34.975Z,7.20
2023-04-20T09:53:31.896Z,3.10
2023-04-20T09:56:22.931Z,4.07
2023-04-20T09:59:14.086Z,1.98
2023-04-20T10:02:01.926Z,4.65
2023-04-20T10:04:59.765Z,8.20
2023-04-20T10:07:47.513Z,16.00
2023-04-20T10:10:46.842Z,6.85
2023-04-20T10:13:42.720Z,4.32
2023-04-20T10:16:30.827Z,3.17
2023-04-20T10:19:21.456Z,2.10
2023-04-20T10:22:27.022Z,5.80
2023-04-20T10:25:21.086Z,6.93
2023-04-20T10:28:10.834Z,1.25
2023-04-20T10:30:58.766Z,3.45
2023-04-20T10:34:04.920Z,0.70
2023-04-20T10:36:52.871Z,2.17
2023-04-20T10:39:47.721Z,4.53
2023-04-20T10:42:46.973Z,2.80
2023-04-20T10:45:36.614Z,4.53
2023-04-20T10:48:24.433Z,3.08
2023-04-20T10:51:12.154Z,1.20
2023-04-20T10:54:03.950Z,1.58
2023-04-20T10:56:54.232Z,1.25
2023-04-20T10:59:42.429Z,2.50
2023-04-20T11:02:31.450Z,5.95
2023-04-20T11:05:21.975Z,4.70
2023-04-20T11:08:09.753Z,2.85
2023-04-20T11:10:59.908Z,4.70
2023-04-20T11:13:48.733Z,1.65
2023-04-20T11:16:49.584Z,2.45
2023-04-20T11:19:39.346Z,3.60
2023-04-20T11:22:27.037Z,2.33
2023-04-20T11:25:14.779Z,1.60
2023-04-20T11:28:08.255Z,1.15
2023-04-20T11:30:56.081Z,6.60
2023-04-20T11:33:44.862Z,2.40
2023-04-20T11:36:32.633Z,0.95
2023-04-20T11:39:27.604Z,1.38
2023-04-20T11:42:15.262Z,1.25
2023-04-20T11:45:06.876Z,1.90
2023-04-20T11:47:58.377Z,1.20
2023-04-20T11:50:47.145Z,12.75
2023-04-20T11:53:35.080Z,2.97
2023-04-20T11:56:23.112Z,1.23
2023-04-20T11:59:12.461Z,2.75
2023-04-20T12:02:04.461Z,4.72
2023-04-20T12:04:52.489Z,5.47
2023-04-20T12:07:40.364Z,0.80
2023-04-20T12:10:28.284Z,2.15
2023-04-20T12:13:16.367Z,3.97
2023-04-20T12:16:04.065Z,2.63
2023-04-20T12:18:52.124Z,0.82
2023-04-20T12:21:39.630Z,4.90
2023-04-20T12:24:29.723Z,0.90
2023-04-20T12:27:17.432Z,4.35
2023-04-20T12:30:05.863Z,5.00
2023-04-20T12:32:53.528Z,4.35
2023-04-20T12:35:43.842Z,1.23
2023-04-20T12:38:33.799Z,1.83
2023-04-20T12:41:23.081Z,1.13
2023-04-20T12:44:11.546Z,4.97
2023-04-20T12:46:59.576Z,0.60
2023-04-20T12:49:47.319Z,1.83
2023-04-20T12:52:37.282Z,1.95
2023-04-20T12:55:26.427Z,0.82
2023-04-20T12:58:16.343Z,3.50
2023-04-20T13:01:04.100Z,0.95
2023-04-20T13:03:55.086Z,1.08
2023-04-20T13:06:43.170Z,1.75
2023-04-20T13:09:31.044Z,1.77
2023-04-20T13:12:19.286Z,2.17
2023-04-20T13:15:11.373Z,4.28
2023-04-20T13:17:59.042Z,2.42
2023-04-20T13:20:46.756Z,1.23
2023-04-20T13:23:34.582Z,3.75
2023-04-20T13:26:22.926Z,0.70
2023-04-20T13:29:10.553Z,4.82
2023-04-20T13:31:58.430Z,3.80
2023-04-20T13:34:46.392Z,2.92
2023-04-20T13:37:37.953Z,6.38
2023-04-20T13:40:26.695Z,0.47
2023-04-20T13:43:14.691Z,0.65
2023-04-20T13:46:02.395Z,1.40
2023-04-20T13:48:50.192Z,2.50
2023-04-20T13:51:42.026Z,2.05
2023-04-20T13:57:17.259Z,1.00
2023-04-20T14:00:05.755Z,1.42
2023-04-20T14:02:53.577Z,3.13
2023-04-20T14:05:42.150Z,2.97
2023-04-20T14:08:32.361Z,4.30
2023-04-20T14:11:20.075Z,3.10
2023-04-20T14:14:09.975Z,0.93
2023-04-20T14:16:57.738Z,1.27
2023-04-20T14:19:45.361Z,0.65
2023-04-20T14:22:36.207Z,4.72
2023-04-20T14:25:23.935Z,2.83
2023-04-20T14:28:11.704Z,2.33
2023-04-20T14:31:01.004Z,8.88
2023-04-20T14:33:48.819Z,3.70
2023-04-20T14:36:36.442Z,1.20
2023-04-20T14:39:24.240Z,0.95
2023-04-20T14:42:13.324Z,0.52
2023-04-20T14:45:01.073Z,1.95
2023-04-20T14:47:58.425Z,2.22
2023-04-20T14:50:46.182Z,2.15
2023-04-20T14:53:38.515Z,4.43
2023-04-20T14:56:26.416Z,3.78
2023-04-20T14:59:28.346Z,2.70
2023-04-20T15:02:16.431Z,3.97
2023-04-20T15:05:09.920Z,4.57
2023-04-20T15:08:00.641Z,10.27
2023-04-20T15:10:48.320Z,2.88
2023-04-20T15:13:36.143Z,2.05
2023-04-20T15:16:26.437Z,2.78
2023-04-20T15:19:14.406Z,4.85
2023-04-20T15:22:02.254Z,5.68
2023-04-20T15:24:55.065Z,6.05
2023-04-20T15:27:42.668Z,8.85
2023-04-20T15:30:33.217Z,4.35
2023-04-20T15:33:24.994Z,2.45
2023-04-20T15:39:11.303Z,0.70
2023-04-20T15:42:06.463Z,0.75
2023-04-20T15:44:54.376Z,1.63
2023-04-20T15:47:42.262Z,1.65
2023-04-20T15:50:35.545Z,4.72
2023-04-20T15:53:23.382Z,3.50
2023-04-20T15:56:11.068Z,0.80
2023-04-20T15:58:58.880Z,0.77
2023-04-20T16:01:49.700Z,0.85
2023-04-20T16:04:47.980Z,2.25
2023-04-20T16:07:35.954Z,1.52
2023-04-20T16:10:24.010Z,2.55
2023-04-20T16:13:15.031Z,1.80
2023-04-20T16:16:03.412Z,7.70
2023-04-20T16:18:58.366Z,0.95
2023-04-20T16:21:51.483Z,2.60
2023-04-20T16:24:42.553Z,3.60
2023-04-20T16:27:49.080Z,1.40
2023-04-20T16:30:44.779Z,1.92
2023-04-20T16:33:33.155Z,2.92
2023-04-20T16:36:21.024Z,1.48
2023-04-20T16:39:10.451Z,5.63
2023-04-20T16:42:00.572Z,1.35
2023-04-20T16:44:48.343Z,2.80
2023-04-20T16:47:36.258Z,5.40
2023-04-20T16:50:25.852Z,6.05
2023-04-20T16:53:13.467Z,0.60
2023-04-20T16:56:01.275Z,1.25
2023-04-20T16:58:48.895Z,5.13
2023-04-20T17:01:36.701Z,1.35
2023-04-20T17:04:24.444Z,4.03
2023-04-20T17:07:17.958Z,1.90
2023-04-20T17:10:06.304Z,5.43
2023-04-20T17:12:59.660Z,1.85
2023-04-20T17:15:57.562Z,2.47
2023-04-20T17:18:45.468Z,1.67
2023-04-20T17:21:40.642Z,4.68
2023-04-20T17:24:28.450Z,13.55
2023-04-20T17:27:16.331Z,3.45
2023-04-20T17:30:05.373Z,2.85
2023-04-20T17:32:53.584Z,1.75
2023-04-20T17:35:41.471Z,6.97
2023-04-20T17:38:29.092Z,1.00
2023-04-20T17:41:16.921Z,2.17
2023-04-20T17:44:04.637Z,5.95
2023-04-20T17:46:53.414Z,4.53
2023-04-20T17:49:44.787Z,9.93
2023-04-20T17:52:32.994Z,27.35
2023-04-20T17:55:23.022Z,42.75
2023-04-20T17:58:10.854Z,32.28
2023-04-20T18:00:58.510Z,39.67
2023-04-20T18:03:48.516Z,39.63
2023-04-20T18:06:36.293Z,33.95
2023-04-20T18:09:24.175Z,32.97
2023-04-20T18:12:11.908Z,14.23
2023-04-20T18:14:59.773Z,17.50
2023-04-20T18:17:47.494Z,23.17
2023-04-20T18:20:35.338Z,32.97
2023-04-20T18:23:22.955Z,25.25
2023-04-20T18:26:17.485Z,21.98
2023-04-20T18:29:05.508Z,22.13
2023-04-20T18:31:55.207Z,21.92
2023-04-20T18:34:42.781Z,19.92
2023-04-20T18:37:30.800Z,16.45
2023-04-20T18:40:18.885Z,28.50
2023-04-20T18:43:07.019Z,17.30
2023-04-20T18:45:54.655Z,17.90
2023-04-20T18:48:42.452Z,15.95
2023-04-20T18:51:30.129Z,31.30
2023-04-20T18:54:18.220Z,17.48
2023-04-20T18:57:07.348Z,10.80
2023-04-20T18:59:58.329Z,9.40
2023-04-20T19:02:46.152Z,11.30
2023-04-20T19:05:33.898Z,17.05
2023-04-20T19:08:22.577Z,7.90
2023-04-20T19:11:10.426Z,6.82
2023-04-20T19:13:58.144Z,10.10
2023-04-20T19:16:45.992Z,6.95
2023-04-20T19:19:33.867Z,9.20
2023-04-20T19:22:21.652Z,13.07
2023-04-20T19:25:09.719Z,15.27
2023-04-20T19:27:59.141Z,13.55
2023-04-20T19:30:47.136Z,10.40
2023-04-20T19:33:35.914Z,9.68
2023-04-20T19:36:23.568Z,21.23
2023-04-20T19:39:11.776Z,12.65
2023-04-20T19:41:59.411Z,9.77
2023-04-20T19:44:47.559Z,9.15
2023-04-20T19:47:36.075Z,12.40
2023-04-20T19:50:23.882Z,13.80
2023-04-20T19:53:11.406Z,8.45
2023-04-20T19:55:59.243Z,7.70
2023-04-20T19:58:47.322Z,7.22
2023-04-20T20:01:35.029Z,5.03
2023-04-20T20:04:22.874Z,13.00
2023-04-20T20:07:11.136Z,7.63
2023-04-20T20:09:58.896Z,8.32
2023-04-20T20:12:52.587Z,7.60
2023-04-20T20:15:40.382Z,14.23
2023-04-20T20:18:28.115Z,9.07
2023-04-20T20:21:16.159Z,13.43
2023-04-20T20:24:04.070Z,17.88
2023-04-20T20:26:54.405Z,17.10
2023-04-20T20:29:42.081Z,20.23
2023-04-20T20:32:29.757Z,28.10
2023-04-20T20:35:17.660Z,19.58
2023-04-20T20:38:06.918Z,22.90
2023-04-20T20:40:55.309Z,70.15
2023-04-20T20:43:43.005Z,59.83
2023-04-20T20:46:31.939Z,36.80
2023-04-20T20:49:19.860Z,37.17
2023-04-20T20:52:07.860Z,27.58
2023-04-20T20:54:55.618Z,19.60
2023-04-20T20:57:43.372Z,28.25
2023-04-20T21:00:31.121Z,25.98
2023-04-20T21:03:19.236Z,24.27
2023-04-20T21:06:07.280Z,27.02
2023-04-20T21:08:55.258Z,18.52
2023-04-20T21:11:56.636Z,23.75
2023-04-20T21:16:53.887Z,18.30
2023-04-20T21:18:05.838Z,22.38
2023-04-20T21:20:53.752Z,15.00
2023-04-20T21:23:41.380Z,15.38
2023-04-20T21:26:35.031Z,14.32
2023-04-20T21:29:22.645Z,16.42
2023-04-20T21:32:10.724Z,6.90
2023-04-20T21:34:58.400Z,22.98
2023-04-20T21:37:46.237Z,14.27
2023-04-20T21:40:34.414Z,17.38
2023-04-20T21:43:22.098Z,7.72
2023-04-20T21:46:14.578Z,20.92
2023-04-20T21:49:02.872Z,10.23
2023-04-20T21:51:50.526Z,10.68
2023-04-20T21:54:41.064Z,19.48
2023-04-20T21:57:28.702Z,39.75
2023-04-20T22:00:18.300Z,28.00
2023-04-20T22:03:06.195Z,19.73
2023-04-20T22:05:53.992Z,16.48
2023-04-20T22:08:42.149Z,15.88
2023-04-20T22:11:30.359Z,7.03
2023-04-20T22:14:18.133Z,9.27
2023-04-20T22:17:05.907Z,16.73
2023-04-20T22:19:53.479Z,8.57
2023-04-20T22:22:41.575Z,14.35
2023-04-20T22:25:29.115Z,11.25
2023-04-20T22:28:17.014Z,12.55
2023-04-20T22:31:04.841Z,9.80
2023-04-20T22:33:52.635Z,8.82
2023-04-20T22:36:41.348Z,17.77
2023-04-20T22:39:29.091Z,13.25
2023-04-20T22:42:16.694Z,9.98
2023-04-20T22:45:05.012Z,15.70
2023-04-20T22:47:52.805Z,17.55
2023-04-20T22:50:41.522Z,8.48
2023-04-20T22:53:31.802Z,6.65
2023-04-20T22:56:19.585Z,6.80
2023-04-20T22:59:07.271Z,8.38
2023-04-20T23:01:55.096Z,7.53
2023-04-20T23:04:44.507Z,3.95
2023-04-20T23:07:33.355Z,10.07
2023-04-20T23:10:21.207Z,2.85
2023-04-20T23:13:08.943Z,3.00
2023-04-20T23:15:56.624Z,2.88
2023-04-20T23:18:44.410Z,3.92
2023-04-20T23:21:33.054Z,1.95
2023-04-20T23:24:20.826Z,3.67
2023-04-20T23:27:08.354Z,4.22
2023-04-20T23:29:56.339Z,10.90
2023-04-20T23:32:44.554Z,2.92
2023-04-20T23:35:32.543Z,3.67
2023-04-20T23:38:22.471Z,3.95
2023-04-20T23:41:11.731Z,3.05
2023-04-20T23:43:59.321Z,2.42
2023-04-20T23:46:47.096Z,3.97
2023-04-20T23:49:34.783Z,5.13
2023-04-20T23:52:22.866Z,5.22
2023-04-20T23:55:10.847Z,3.75
2023-04-20T23:57:58.694Z,3.92
